createdAt,value
2024-04-05T00:02:14.125Z,12.42
2024-04-05T00:04:42.979Z,12.43
2024-04-05T00:07:12.133Z,12.40
2024-04-05T00:09:45.410Z,12.36
2024-04-05T00:12:14.611Z,12.31
2024-04-05T00:14:42.886Z,12.26
2024-04-05T00:17:12.118Z,12.21
2024-04-05T00:19:43.309Z,12.17
2024-04-05T00:22:11.797Z,12.14
2024-04-05T00:24:40.364Z,12.17
2024-04-05T00:27:09.279Z,12.16
2024-04-05T00:29:37.809Z,12.12
2024-04-05T00:32:07.024Z,12.02
2024-04-05T00:34:36.154Z,11.91
2024-04-05T00:37:04.827Z,11.89
2024-04-05T00:39:33.327Z,11.92
2024-04-05T00:42:02.478Z,11.95
2024-04-05T00:44:31.531Z,11.98
2024-04-05T00:46:59.850Z,12.01
2024-04-05T00:49:28.804Z,12.02
2024-04-05T00:51:57.828Z,11.96
2024-04-05T00:54:26.498Z,11.92
2024-04-05T00:56:55.537Z,11.92
2024-04-05T00:59:25.522Z,11.94
2024-04-05T01:01:54.107Z,11.92
2024-04-05T01:04:22.400Z,11.81
2024-04-05T01:06:52.276Z,11.68
2024-04-05T01:09:22.079Z,11.58
2024-04-05T01:11:57.603Z,11.49
2024-04-05T01:14:27.028Z,11.40
2024-04-05T01:16:56.209Z,11.33
2024-04-05T01:19:24.958Z,11.31
2024-04-05T01:21:53.317Z,11.30
2024-04-05T01:24:22.054Z,11.28
2024-04-05T01:26:51.009Z,11.27
2024-04-05T01:29:19.552Z,11.18
2024-04-05T01:31:47.954Z,11.07
2024-04-05T01:34:17.612Z,11.00
2024-04-05T01:36:46.712Z,10.95
2024-04-05T01:39:15.422Z,10.92
2024-04-05T01:41:43.778Z,10.90
2024-04-05T01:44:13.177Z,10.83
2024-04-05T01:46:42.861Z,10.81
2024-04-05T01:49:12.048Z,10.79
2024-04-05T01:51:41.098Z,10.75
2024-04-05T01:54:09.640Z,10.70
2024-04-05T01:56:38.376Z,10.65
2024-04-05T01:59:06.886Z,10.62
2024-04-05T02:01:35.387Z,10.61
2024-04-05T02:04:04.941Z,10.53
2024-04-05T02:06:33.554Z,10.36
2024-04-05T02:09:02.795Z,10.27
2024-04-05T02:11:31.452Z,10.30
2024-04-05T02:14:00.442Z,10.32
2024-04-05T02:16:29.410Z,10.28
2024-04-05T02:18:57.772Z,10.20
2024-04-05T02:21:26.112Z,10.11
2024-04-05T02:23:54.532Z,10.06
2024-04-05T02:26:23.746Z,10.05
2024-04-05T02:28:52.205Z,10.07
2024-04-05T02:31:20.418Z,10.02
2024-04-05T02:33:49.054Z,9.97
2024-04-05T02:36:18.272Z,9.91
2024-04-05T02:38:47.540Z,9.89
2024-04-05T02:41:17.065Z,9.86
2024-04-05T02:43:46.294Z,9.80
2024-04-05T02:46:14.739Z,9.76
2024-04-05T02:48:43.183Z,9.77
2024-04-05T02:51:11.906Z,9.76
2024-04-05T02:53:41.119Z,9.71
2024-04-05T02:56:12.283Z,9.65
2024-04-05T02:58:40.948Z,9.63
2024-04-05T03:01:09.734Z,9.62
2024-04-05T03:03:38.118Z,9.60
2024-04-05T03:06:06.457Z,9.58
2024-04-05T03:08:35.367Z,9.56
2024-04-05T03:11:04.152Z,9.49
2024-04-05T03:13:33.181Z,9.42
2024-04-05T03:16:02.629Z,9.39
2024-04-05T03:18:33.063Z,9.38
2024-04-05T03:21:01.542Z,9.37
2024-04-05T03:23:30.558Z,9.35
2024-04-05T03:25:59.306Z,9.32
2024-04-05T03:28:28.291Z,9.26
2024-04-05T03:30:57.516Z,9.21
2024-04-05T03:33:26.608Z,9.16
2024-04-05T03:35:55.008Z,9.14
2024-04-05T03:38:24.460Z,9.13
2024-04-05T03:40:53.623Z,9.12
2024-04-05T03:43:22.864Z,9.08
2024-04-05T03:45:51.276Z,9.07
2024-04-05T03:48:20.172Z,9.04
2024-04-05T03:50:48.721Z,9.00
2024-04-05T03:53:17.279Z,8.94
2024-04-05T03:55:45.522Z,8.94
2024-04-05T03:58:14.970Z,8.94
2024-04-05T04:00:50.572Z,8.94
2024-04-05T04:03:19.817Z,8.95
2024-04-05T04:05:48.964Z,8.97
2024-04-05T04:08:17.656Z,9.03
2024-04-05T04:10:46.244Z,9.01
2024-04-05T04:13:15.702Z,8.97
2024-04-05T04:15:45.033Z,9.01
2024-04-05T04:18:13.841Z,9.06
2024-04-05T04:20:42.976Z,9.13
2024-04-05T04:23:11.822Z,9.15
2024-04-05T04:25:41.255Z,9.12
2024-04-05T04:28:11.391Z,9.16
2024-04-05T04:30:40.490Z,9.20
2024-04-05T04:33:12.089Z,9.27
2024-04-05T04:35:44.574Z,9.39
2024-04-05T04:38:13.180Z,9.53
2024-04-05T04:40:42.978Z,9.66
2024-04-05T04:43:11.452Z,9.78
2024-04-05T04:45:39.790Z,9.91
2024-04-05T04:48:08.603Z,10.02
2024-04-05T04:50:37.337Z,10.14
2024-04-05T04:53:05.947Z,10.25
2024-04-05T04:55:36.751Z,10.36
2024-04-05T04:58:06.607Z,10.49
2024-04-05T05:00:35.456Z,10.63
2024-04-05T05:03:03.866Z,10.78
2024-04-05T05:05:32.619Z,10.92
2024-04-05T05:08:01.146Z,11.01
2024-04-05T05:10:30.147Z,11.07
2024-04-05T05:13:00.333Z,11.18
2024-04-05T05:15:28.490Z,11.27
2024-04-05T05:17:56.730Z,11.38
2024-04-05T05:20:27.855Z,11.48
2024-04-05T05:22:57.341Z,11.55
2024-04-05T05:25:25.683Z,11.68
2024-04-05T05:27:54.200Z,11.88
2024-04-05T05:30:23.547Z,12.05
2024-04-05T05:32:54.709Z,12.17
2024-04-05T05:35:23.914Z,12.30
2024-04-05T05:37:51.969Z,12.44
2024-04-05T05:40:19.921Z,12.60
2024-04-05T05:42:48.987Z,12.75
2024-04-05T05:45:17.382Z,12.84
2024-04-05T05:47:46.245Z,12.92
2024-04-05T05:50:15.174Z,13.05
2024-04-05T05:52:43.756Z,13.18
2024-04-05T05:55:12.070Z,13.29
2024-04-05T05:57:40.393Z,13.37
2024-04-05T06:00:11.560Z,13.43
2024-04-05T06:02:40.764Z,13.52
2024-04-05T06:05:16.031Z,13.59
2024-04-05T06:07:45.127Z,13.71
2024-04-05T06:10:20.944Z,13.82
2024-04-05T06:12:53.202Z,13.94
2024-04-05T06:15:25.838Z,14.00
2024-04-05T06:17:56.290Z,14.12
2024-04-05T06:20:27.089Z,14.23
2024-04-05T06:22:57.690Z,14.34
2024-04-05T06:25:25.962Z,14.40
2024-04-05T06:27:56.497Z,14.48
2024-04-05T06:30:24.765Z,14.56
2024-04-05T06:32:53.716Z,14.68
2024-04-05T06:35:21.960Z,14.82
2024-04-05T06:37:50.786Z,14.94
2024-04-05T06:40:18.963Z,15.08
2024-04-05T06:42:47.448Z,15.17
2024-04-05T06:45:15.830Z,15.25
2024-04-05T06:47:44.152Z,15.30
2024-04-05T06:50:12.439Z,15.38
2024-04-05T06:52:40.455Z,15.46
2024-04-05T06:55:09.427Z,15.55
2024-04-05T06:57:38.732Z,15.63
2024-04-05T07:00:07.940Z,15.74
2024-04-05T07:02:36.120Z,15.86
2024-04-05T07:05:04.594Z,15.91
2024-04-05T07:07:32.775Z,16.01
2024-04-05T07:10:00.913Z,16.11
2024-04-05T07:12:29.433Z,16.21
2024-04-05T07:14:58.691Z,16.28
2024-04-05T07:17:27.456Z,16.32
2024-04-05T07:19:56.309Z,16.39
2024-04-05T07:22:26.208Z,16.45
2024-04-05T07:24:55.751Z,16.51
2024-04-05T07:27:25.628Z,16.60
2024-04-05T07:29:55.344Z,16.73
2024-04-05T07:32:26.235Z,16.85
2024-04-05T07:34:55.465Z,16.96
2024-04-05T07:37:23.772Z,17.07
2024-04-05T07:39:52.187Z,17.20
2024-04-05T07:42:20.812Z,17.31
2024-04-05T07:44:48.901Z,17.39
2024-04-05T07:47:17.316Z,17.45
2024-04-05T07:49:45.587Z,17.53
2024-04-05T07:52:14.659Z,17.65
2024-04-05T07:54:46.580Z,17.63
2024-04-05T07:57:15.093Z,17.66
2024-04-05T07:59:48.472Z,17.68
2024-04-05T08:02:17.831Z,17.75
2024-04-05T08:04:46.282Z,17.79
2024-04-05T08:07:14.625Z,17.87
2024-04-05T08:09:44.839Z,17.93
2024-04-05T08:12:13.679Z,18.03
2024-04-05T08:14:43.653Z,18.12
2024-04-05T08:17:13.915Z,18.17
2024-04-05T08:19:42.841Z,18.25
2024-04-05T08:22:13.972Z,18.35
2024-04-05T08:25:08.721Z,18.36
2024-04-05T08:27:38.045Z,18.36
2024-04-05T08:30:07.674Z,18.35
2024-04-05T08:32:44.619Z,18.30
2024-04-05T08:35:14.858Z,18.39
2024-04-05T08:37:44.818Z,18.44
2024-04-05T08:43:18.195Z,18.50
2024-04-05T08:45:56.918Z,18.57
2024-04-05T08:48:26.723Z,18.60
2024-04-05T08:50:55.608Z,18.65
2024-04-05T08:53:23.697Z,18.72
2024-04-05T08:55:51.726Z,18.77
2024-04-05T08:58:19.684Z,18.86
2024-04-05T09:00:48.567Z,18.94
2024-04-05T09:03:16.473Z,19.07
2024-04-05T09:05:46.202Z,19.18
2024-04-05T09:08:14.961Z,19.21
2024-04-05T09:10:50.349Z,19.26
2024-04-05T09:13:18.864Z,19.34
2024-04-05T09:15:53.406Z,19.38
2024-04-05T09:18:25.227Z,19.35
2024-04-05T09:20:53.377Z,19.34
2024-04-05T09:23:23.471Z,19.28
2024-04-05T09:26:02.618Z,19.18
2024-04-05T09:28:30.991Z,19.14
2024-04-05T09:31:01.112Z,19.02
2024-04-05T09:33:30.393Z,18.93
2024-04-05T09:35:59.390Z,18.87
2024-04-05T09:38:27.368Z,18.85
2024-04-05T09:40:55.372Z,18.84
2024-04-05T09:43:23.628Z,18.85
2024-04-05T09:45:52.851Z,19.05
2024-04-05T09:48:23.079Z,19.20
2024-04-05T09:50:52.891Z,19.34
2024-04-05T09:53:20.890Z,19.47
2024-04-05T09:55:50.572Z,19.53
2024-04-05T09:58:19.036Z,19.59
2024-04-05T10:00:49.426Z,19.63
2024-04-05T10:03:19.123Z,19.60
2024-04-05T10:05:50.725Z,19.58
2024-04-05T10:08:20.215Z,19.57
2024-04-05T10:10:50.795Z,19.61
2024-04-05T10:13:25.667Z,19.58
2024-04-05T10:15:54.492Z,19.65
2024-04-05T10:18:31.521Z,19.75
2024-04-05T10:21:04.664Z,19.87
2024-04-05T10:23:34.397Z,19.95
2024-04-05T10:26:12.431Z,20.00
2024-04-05T10:28:41.588Z,20.09
2024-04-05T10:31:12.652Z,20.19
2024-04-05T10:33:47.792Z,20.26
2024-04-05T10:36:16.119Z,20.33
2024-04-05T10:38:50.459Z,20.39
2024-04-05T10:41:19.872Z,20.41
2024-04-05T10:43:48.563Z,20.45
2024-04-05T10:46:19.112Z,20.44
2024-04-05T10:48:57.335Z,20.47
2024-04-05T10:51:26.322Z,20.51
2024-04-05T10:53:56.745Z,20.47
2024-04-05T10:56:25.579Z,20.47
2024-04-05T10:58:55.082Z,20.51
2024-04-05T11:01:27.342Z,20.47
2024-04-05T11:03:57.280Z,20.51
2024-04-05T11:06:26.939Z,20.55
2024-04-05T11:11:30.094Z,20.73
2024-04-05T11:14:07.403Z,20.83
2024-04-05T11:16:41.024Z,20.94
2024-04-05T11:19:09.869Z,21.00
2024-04-05T11:21:38.110Z,21.12
2024-04-05T11:26:50.313Z,21.30
2024-04-05T11:29:20.539Z,21.36
2024-04-05T11:31:49.216Z,21.25
2024-04-05T11:34:18.560Z,21.22
2024-04-05T11:36:54.545Z,21.26
2024-04-05T11:39:26.204Z,21.19
2024-04-05T11:41:56.073Z,21.22
2024-04-05T11:44:29.043Z,21.18
2024-04-05T11:46:57.329Z,21.17
2024-04-05T11:49:26.709Z,21.06
2024-04-05T11:51:55.433Z,20.94
2024-04-05T11:54:24.076Z,20.88
2024-04-05T11:56:52.639Z,20.89
2024-04-05T11:59:21.657Z,21.04
2024-04-05T12:01:50.423Z,21.14
2024-04-05T12:04:22.195Z,21.29
2024-04-05T12:06:52.513Z,21.38
2024-04-05T12:09:21.356Z,21.51
2024-04-05T12:11:50.158Z,21.46
2024-04-05T12:14:19.930Z,21.40
2024-04-05T12:16:52.638Z,21.25
2024-04-05T12:19:20.985Z,21.25
2024-04-05T12:21:49.686Z,21.27
2024-04-05T12:24:18.490Z,21.29
2024-04-05T12:26:47.723Z,21.26
2024-04-05T12:29:16.345Z,21.22
2024-04-05T12:31:44.271Z,21.18
2024-04-05T12:34:12.183Z,21.20
2024-04-05T12:36:40.755Z,21.30
2024-04-05T12:39:17.773Z,21.42
2024-04-05T12:41:45.687Z,21.55
2024-04-05T12:44:13.819Z,21.67
2024-04-05T12:46:43.289Z,21.78
2024-04-05T12:49:18.017Z,21.80
2024-04-05T12:52:15.086Z,21.77
2024-04-05T12:57:16.687Z,21.80
2024-04-05T12:59:44.633Z,21.90
2024-04-05T13:02:12.683Z,21.98
2024-04-05T13:04:40.594Z,22.03
2024-04-05T13:07:08.769Z,22.09
2024-04-05T13:09:36.741Z,22.07
2024-04-05T13:12:04.799Z,22.08
2024-04-05T13:14:32.583Z,22.11
2024-04-05T13:17:00.928Z,22.13
2024-04-05T13:19:28.959Z,22.12
2024-04-05T13:21:56.820Z,22.13
2024-04-05T13:24:24.772Z,22.17
2024-04-05T13:26:53.057Z,22.24
2024-04-05T13:29:21.711Z,22.25
2024-04-05T13:31:49.690Z,22.27
2024-04-05T13:34:17.720Z,22.23
2024-04-05T13:36:48.150Z,22.21
2024-04-05T13:39:16.156Z,22.16
2024-04-05T13:41:44.780Z,22.07
2024-04-05T13:44:12.681Z,22.02
2024-04-05T13:46:40.527Z,21.93
2024-04-05T13:49:10.407Z,21.85
2024-04-05T13:51:40.038Z,21.74
2024-04-05T13:54:10.881Z,21.72
2024-04-05T13:56:40.714Z,21.68
2024-04-05T13:59:17.875Z,21.62
2024-04-05T14:01:48.463Z,21.59
2024-04-05T14:04:18.104Z,21.51
2024-04-05T14:09:19.544Z,21.47
2024-04-05T14:11:52.703Z,21.47
2024-04-05T14:14:21.963Z,21.47
2024-04-05T14:16:50.953Z,21.47
2024-04-05T14:19:18.992Z,21.49
2024-04-05T14:21:48.763Z,21.51
2024-04-05T14:24:21.676Z,21.52
2024-04-05T14:26:50.614Z,21.49
2024-04-05T14:29:18.862Z,21.49
2024-04-05T14:31:46.893Z,21.45
2024-04-05T14:34:14.992Z,21.37
2024-04-05T14:36:43.803Z,21.31
2024-04-05T14:39:11.916Z,21.28
2024-04-05T14:41:39.954Z,21.27
2024-04-05T14:44:08.776Z,21.27
2024-04-05T14:46:36.852Z,21.23
2024-04-05T14:49:04.878Z,21.16
2024-04-05T14:51:33.972Z,21.04
2024-04-05T14:54:03.244Z,20.98
2024-04-05T14:56:31.303Z,20.95
2024-04-05T14:58:59.580Z,20.91
2024-04-05T15:01:27.906Z,20.84
2024-04-05T15:03:55.914Z,20.80
2024-04-05T15:06:23.996Z,20.79
2024-04-05T15:08:51.929Z,20.77
2024-04-05T15:11:20.120Z,20.75
2024-04-05T15:13:48.164Z,20.73
2024-04-05T15:16:17.198Z,20.67
2024-04-05T15:18:45.336Z,20.63
2024-04-05T15:21:13.245Z,20.62
2024-04-05T15:23:41.804Z,20.54
2024-04-05T15:26:09.895Z,20.43
2024-04-05T15:28:39.240Z,20.28
2024-04-05T15:31:07.226Z,20.14
2024-04-05T15:33:38.222Z,19.92
2024-04-05T15:36:06.566Z,19.69
2024-04-05T15:38:35.909Z,19.44
2024-04-05T15:41:08.293Z,19.18
2024-04-05T15:43:37.379Z,18.99
2024-04-05T15:46:06.067Z,18.81
2024-04-05T15:48:33.946Z,18.40
2024-04-05T15:51:06.069Z,18.21
2024-04-05T15:53:34.542Z,18.01
2024-04-05T15:56:04.080Z,17.75
2024-04-05T15:58:32.113Z,17.54
2024-04-05T16:01:04.325Z,17.36
2024-04-05T16:03:33.270Z,17.09
2024-04-05T16:06:01.287Z,16.87
2024-04-05T16:08:29.325Z,16.71
2024-04-05T16:11:01.358Z,16.54
2024-04-05T16:13:29.308Z,16.41
2024-04-05T16:16:00.519Z,16.33
2024-04-05T16:18:29.106Z,16.27
2024-04-05T16:21:13.567Z,16.23
2024-04-05T16:23:43.102Z,16.16
2024-04-05T16:26:11.851Z,16.09
2024-04-05T16:28:44.530Z,16.07
2024-04-05T16:31:15.661Z,16.09
2024-04-05T16:33:44.492Z,16.08
2024-04-05T16:36:12.723Z,15.99
2024-04-05T16:38:41.025Z,15.94
2024-04-05T16:41:10.616Z,15.95
2024-04-05T16:43:39.012Z,15.92
2024-04-05T16:46:11.230Z,15.91
2024-04-05T16:48:39.860Z,15.93
2024-04-05T16:51:08.454Z,15.96
2024-04-05T16:53:39.603Z,16.02
2024-04-05T16:56:08.335Z,16.05
2024-04-05T16:58:36.434Z,16.06
2024-04-05T17:01:06.096Z,16.06
2024-04-05T17:03:34.717Z,16.08
2024-04-05T17:06:23.253Z,16.11
2024-04-05T17:08:51.796Z,16.11
2024-04-05T17:11:19.807Z,16.10
2024-04-05T17:13:56.853Z,16.09
2024-04-05T17:16:24.763Z,16.10
2024-04-05T17:18:52.864Z,16.06
2024-04-05T17:21:21.565Z,16.05
2024-04-05T17:23:50.342Z,16.03
2024-04-05T17:26:20.068Z,16.03
2024-04-05T17:28:49.757Z,15.97
2024-04-05T17:31:19.901Z,15.84
2024-04-05T17:33:48.138Z,15.73
2024-04-05T17:36:16.310Z,15.68
2024-04-05T17:38:50.586Z,15.65
2024-04-05T17:41:18.610Z,15.66
2024-04-05T17:43:47.328Z,15.71
2024-04-05T17:46:16.470Z,15.76
2024-04-05T17:48:44.622Z,15.81
2024-04-05T17:51:12.600Z,15.85
2024-04-05T17:53:40.941Z,15.89
2024-04-05T17:56:10.745Z,15.87
2024-04-05T17:58:38.718Z,15.83
2024-04-05T18:01:06.715Z,15.81
2024-04-05T18:03:34.944Z,15.80
2024-04-05T18:06:03.020Z,15.77
2024-04-05T18:08:31.039Z,15.73
2024-04-05T18:10:59.153Z,15.66
2024-04-05T18:13:27.126Z,15.59
2024-04-05T18:15:56.120Z,15.53
2024-04-05T18:18:24.077Z,15.47
2024-04-05T18:20:52.052Z,15.42
2024-04-05T18:23:20.063Z,15.37
2024-04-05T18:25:48.132Z,15.33
2024-04-05T18:28:16.823Z,15.32
2024-04-05T18:30:44.861Z,15.33
2024-04-05T18:33:12.888Z,15.33
2024-04-05T18:35:40.855Z,15.31
2024-04-05T18:38:09.036Z,15.28
2024-04-05T18:40:37.480Z,15.23
2024-04-05T18:43:05.652Z,15.23
2024-04-05T18:45:33.662Z,15.20
2024-04-05T18:48:10.602Z,15.18
2024-04-05T18:50:38.607Z,15.14
2024-04-05T18:53:06.669Z,15.12
2024-04-05T18:55:37.640Z,15.11
2024-04-05T18:58:06.042Z,15.05
2024-04-05T19:00:34.078Z,14.97
2024-04-05T19:03:05.203Z,14.83
2024-04-05T19:05:33.396Z,14.72
2024-04-05T19:08:01.454Z,14.66
2024-04-05T19:10:29.566Z,14.63
2024-04-05T19:12:57.610Z,14.66
2024-04-05T19:15:26.176Z,14.64
2024-04-05T19:17:54.154Z,14.62
2024-04-05T19:20:22.806Z,14.59
2024-04-05T19:22:50.768Z,14.52
2024-04-05T19:25:18.773Z,14.40
2024-04-05T19:27:46.805Z,14.27
2024-04-05T19:30:14.938Z,14.16
2024-04-05T19:32:43.335Z,14.04
2024-04-05T19:35:14.430Z,13.99
2024-04-05T19:37:44.954Z,14.00
2024-04-05T19:40:14.791Z,13.97
2024-04-05T19:42:42.999Z,13.93
2024-04-05T19:45:15.913Z,13.87
2024-04-05T19:47:44.060Z,13.86
2024-04-05T19:50:12.123Z,13.77
2024-04-05T19:52:40.174Z,13.74
2024-04-05T19:55:09.510Z,13.66
2024-04-05T19:57:37.561Z,13.56
2024-04-05T20:00:06.170Z,13.39
2024-04-05T20:02:40.680Z,13.29
2024-04-05T20:05:09.229Z,13.22
2024-04-05T20:07:38.003Z,13.16
2024-04-05T20:10:07.461Z,13.12
2024-04-05T20:12:36.872Z,13.06
2024-04-05T20:15:05.296Z,13.08
2024-04-05T20:17:35.415Z,13.06
2024-04-05T20:20:04.412Z,13.00
2024-04-05T20:22:32.614Z,12.91
2024-04-05T20:25:00.608Z,12.83
2024-04-05T20:27:28.761Z,12.68
2024-04-05T20:30:15.483Z,12.53
2024-04-05T20:32:43.986Z,12.46
2024-04-05T20:35:11.981Z,12.43
2024-04-05T20:37:40.209Z,12.33
2024-04-05T20:40:08.908Z,12.25
2024-04-05T20:42:36.832Z,12.22
2024-04-05T20:45:05.180Z,12.16
2024-04-05T20:47:33.909Z,12.10
2024-04-05T20:50:02.037Z,11.97
2024-04-05T20:52:30.527Z,11.92
2024-04-05T20:54:58.535Z,11.93
2024-04-05T20:57:26.652Z,11.95
2024-04-05T20:59:54.684Z,11.92
2024-04-05T21:02:22.721Z,11.85
2024-04-05T21:04:50.713Z,11.83
2024-04-05T21:07:18.694Z,11.79
2024-04-05T21:09:46.782Z,11.77
2024-04-05T21:12:15.281Z,11.81
2024-04-05T21:14:43.169Z,11.87
2024-04-05T21:17:11.319Z,11.83
2024-04-05T21:19:47.603Z,11.74
2024-04-05T21:22:15.974Z,11.63
2024-04-05T21:24:45.028Z,11.52
2024-04-05T21:27:13.069Z,11.42
2024-04-05T21:29:41.182Z,11.39
2024-04-05T21:32:12.932Z,11.38
2024-04-05T21:34:40.936Z,11.42
2024-04-05T21:37:08.903Z,11.42
2024-04-05T21:39:37.032Z,11.37
2024-04-05T21:42:05.552Z,11.38
2024-04-05T21:44:33.510Z,11.38
2024-04-05T21:47:01.518Z,11.38
2024-04-05T21:52:00.464Z,11.28
2024-04-05T21:54:28.425Z,11.16
2024-04-05T21:56:56.744Z,11.09
2024-04-05T21:59:25.407Z,11.03
2024-04-05T22:01:53.977Z,10.97
2024-04-05T22:04:22.010Z,10.91
2024-04-05T22:06:49.954Z,10.94
2024-04-05T22:09:18.338Z,11.00
2024-04-05T22:11:46.523Z,11.05
2024-04-05T22:14:20.508Z,11.01
2024-04-05T22:16:52.383Z,10.92
2024-04-05T22:19:20.367Z,10.81
2024-04-05T22:21:48.356Z,10.70
2024-04-05T22:24:16.318Z,10.64
2024-04-05T22:26:44.523Z,10.63
2024-04-05T22:29:12.459Z,10.60
2024-04-05T22:31:40.772Z,10.55
2024-04-05T22:34:08.878Z,10.54
2024-04-05T22:36:36.865Z,10.52
2024-04-05T22:39:08.932Z,10.53
2024-04-05T22:41:38.576Z,10.53
2024-04-05T22:44:06.545Z,10.35
2024-04-05T22:46:34.515Z,10.28
2024-04-05T22:49:02.581Z,10.20
2024-04-05T22:51:30.736Z,10.17
2024-04-05T22:53:58.709Z,10.20
2024-04-05T22:56:26.764Z,10.26
2024-04-05T22:58:54.765Z,10.30
2024-04-05T23:01:22.803Z,10.33
2024-04-05T23:03:50.774Z,10.34
2024-04-05T23:06:23.800Z,10.29
2024-04-05T23:08:51.969Z,10.25
2024-04-05T23:11:20.021Z,10.18
2024-04-05T23:13:48.214Z,10.10
2024-04-05T23:16:17.185Z,10.04
2024-04-05T23:18:45.201Z,10.03
2024-04-05T23:21:13.211Z,10.02
2024-04-05T23:23:41.233Z,10.01
2024-04-05T23:26:09.526Z,9.97
2024-04-05T23:28:38.089Z,9.91
2024-04-05T23:31:06.556Z,9.85
2024-04-05T23:33:34.696Z,9.75
2024-04-05T23:36:03.060Z,9.64
2024-04-05T23:38:31.118Z,9.63
2024-04-05T23:40:59.083Z,9.68
2024-04-05T23:43:27.123Z,9.78
2024-04-05T23:45:55.095Z,9.89
2024-04-05T23:48:23.426Z,10.02
2024-04-05T23:50:51.497Z,10.11
2024-04-05T23:53:19.744Z,10.11
2024-04-05T23:55:47.856Z,10.11
2024-04-05T23:58:15.848Z,10.12
